Time;durP1;ratioP1;P1;durP2;ratioP2;P2;SDS_P1;SDS_P2;PMS_P1;PMS_P2;Temp;Humidity;BMP_temperature;BMP_pressure;BME280_temperature;BME280_humidity;BME280_pressure;Samples;Min_cycle;Max_cycle;Signal;HPM_P1;HPM_P2
2023/06/14 00:00:15;;;;;;;8.45;4.68;;;12.60;73.30;;;;;;5038148;28;20383;-67
2023/06/14 00:02:41;;;;;;;9.43;5.05;;;12.70;72.40;;;;;;5034729;28;20037;-67
2023/06/14 00:05:07;;;;;;;9.55;4.43;;;12.70;72.50;;;;;;5036389;28;20034;-68
2023/06/14 00:07:43;;;;;;;8.30;4.50;;;12.70;72.30;;;;;;5035996;28;20018;-68
2023/06/14 00:10:10;;;;;;;9.18;4.28;;;12.70;72.50;;;;;;5030003;28;20117;-68
2023/06/14 00:12:36;;;;;;;9.32;4.60;;;12.80;73.20;;;;;;5040064;28;20086;-68
2023/06/14 00:15:02;;;;;;;7.93;4.85;;;12.70;74.10;;;;;;5040269;28;20028;-67
2023/06/14 00:17:31;;;;;;;9.10;4.38;;;12.60;72.70;;;;;;5040038;28;20034;-68
2023/06/14 00:19:57;;;;;;;7.05;4.20;;;12.70;71.90;;;;;;5021278;28;20041;-67
2023/06/14 00:22:24;;;;;;;7.70;4.47;;;12.80;71.60;;;;;;5035146;28;20038;-68
2023/06/14 00:24:51;;;;;;;8.55;4.53;;;12.90;72.50;;;;;;5036138;28;20033;-68
2023/06/14 00:27:16;;;;;;;6.90;3.95;;;12.80;73.40;;;;;;5038305;28;20124;-67
2023/06/14 00:29:42;;;;;;;7.82;4.43;;;12.60;74.30;;;;;;5040172;28;20029;-68
2023/06/14 00:32:08;;;;;;;7.22;4.40;;;12.40;76.20;;;;;;5035743;28;20018;-68
2023/06/14 00:34:33;;;;;;;7.53;4.63;;;12.20;77.20;;;;;;5055661;28;20529;-68
2023/06/14 00:36:59;;;;;;;10.70;4.35;;;12.00;77.60;;;;;;5038204;28;20315;-68
2023/06/14 00:39:25;;;;;;;9.13;4.65;;;11.80;78.00;;;;;;5054165;28;20060;-68
2023/06/14 00:41:50;;;;;;;7.97;3.88;;;11.50;78.70;;;;;;5043474;28;20057;-68
2023/06/14 00:44:17;;;;;;;6.97;4.38;;;11.40;79.50;;;;;;5043656;28;20033;-68
2023/06/14 00:46:43;;;;;;;7.00;4.20;;;11.30;79.90;;;;;;5043190;28;20108;-68
2023/06/14 00:49:10;;;;;;;13.45;4.60;;;11.20;80.40;;;;;;5021032;28;20021;-68
2023/06/14 00:51:37;;;;;;;8.02;4.68;;;11.10;80.40;;;;;;5038049;28;20037;-68
2023/06/14 00:54:03;;;;;;;8.10;4.55;;;11.00;81.10;;;;;;5048676;28;20040;-67
2023/06/14 00:56:29;;;;;;;7.53;4.40;;;11.00;80.60;;;;;;5052424;28;20033;-68
2023/06/14 00:58:56;;;;;;;7.95;4.43;;;10.90;80.80;;;;;;5047845;28;20021;-68
2023/06/14 01:01:21;;;;;;;7.55;4.30;;;10.80;81.40;;;;;;5040466;28;20401;-67
2023/06/14 01:03:47;;;;;;;9.80;4.15;;;10.80;81.60;;;;;;5040749;28;20021;-67
2023/06/14 01:06:33;;;;;;;8.05;4.60;;;10.80;81.40;;;;;;5027168;28;20079;-68
2023/06/14 01:09:27;;;;;;;7.50;4.18;;;10.80;81.20;;;;;;5034947;28;20105;-67
2023/06/14 01:12:15;;;;;;;9.05;4.30;;;10.90;80.40;;;;;;5042700;28;20028;-69
2023/06/14 01:14:42;;;;;;;7.82;4.40;;;11.00;79.90;;;;;;5045248;28;20041;-68
2023/06/14 01:17:15;;;;;;;10.30;4.57;;;11.10;79.70;;;;;;5045091;28;20095;-68
2023/06/14 01:19:42;;;;;;;8.57;4.43;;;11.10;79.50;;;;;;5044804;28;20414;-68
2023/06/14 01:22:08;;;;;;;8.20;4.15;;;11.10;80.10;;;;;;5048750;28;20036;-68
2023/06/14 01:24:34;;;;;;;8.30;4.00;;;10.90;81.40;;;;;;5047473;28;20033;-68
2023/06/14 01:27:02;;;;;;;7.50;4.55;;;10.80;82.00;;;;;;5034880;28;20373;-69
2023/06/14 01:29:32;;;;;;;10.05;4.68;;;10.60;82.30;;;;;;5051358;28;20021;-67
2023/06/14 01:32:01;;;;;;;7.15;4.35;;;10.50;82.90;;;;;;5045560;28;20444;-68
2023/06/14 01:34:30;;;;;;;8.68;4.50;;;10.30;83.70;;;;;;5033758;28;20079;-67
2023/06/14 01:36:56;;;;;;;11.13;4.72;;;10.30;84.30;;;;;;5016536;28;20036;-68
2023/06/14 01:39:28;;;;;;;7.13;4.43;;;10.10;84.50;;;;;;5032233;28;20411;-68
2023/06/14 01:41:57;;;;;;;7.43;4.57;;;10.00;85.20;;;;;;5028863;28;20029;-67
2023/06/14 01:44:24;;;;;;;8.32;4.57;;;9.90;85.40;;;;;;5028714;28;20033;-67
2023/06/14 01:46:51;;;;;;;8.45;4.63;;;9.90;85.70;;;;;;5035705;28;20013;-67
2023/06/14 01:49:17;;;;;;;6.40;4.28;;;9.80;86.10;;;;;;5034030;28;20037;-67
2023/06/14 01:51:42;;;;;;;6.80;4.40;;;9.70;86.10;;;;;;5032919;28;20124;-67
2023/06/14 01:54:08;;;;;;;9.20;4.47;;;9.70;86.30;;;;;;5038785;28;20057;-67
2023/06/14 01:56:33;;;;;;;7.38;4.63;;;9.60;86.90;;;;;;5046442;28;20026;-68
2023/06/14 01:58:59;;;;;;;5.85;4.05;;;9.60;87.30;;;;;;5037972;28;20353;-68
2023/06/14 02:01:24;;;;;;;7.72;4.70;;;9.50;87.60;;;;;;5036736;28;20363;-68
2023/06/14 02:03:53;;;;;;;7.78;4.60;;;9.50;87.90;;;;;;5020395;28;20041;-68
2023/06/14 02:06:19;;;;;;;7.45;4.20;;;9.40;88.70;;;;;;5015716;28;20022;-68
2023/06/14 02:08:44;;;;;;;7.13;4.32;;;9.40;88.50;;;;;;5014502;28;20214;-68
2023/06/14 02:11:10;;;;;;;8.75;4.30;;;9.40;88.70;;;;;;5024348;28;20468;-69
2023/06/14 02:13:35;;;;;;;7.88;4.82;;;9.50;87.80;;;;;;5034967;28;20043;-68
2023/06/14 02:16:01;;;;;;;8.48;4.55;;;9.50;87.40;;;;;;5038851;28;20403;-68
2023/06/14 02:18:27;;;;;;;7.07;4.53;;;9.60;86.90;;;;;;5042009;28;20409;-68
2023/06/14 02:20:52;;;;;;;8.13;4.13;;;9.60;86.50;;;;;;5042854;28;20029;-69
2023/06/14 02:23:21;;;;;;;8.15;4.50;;;9.70;85.80;;;;;;5040669;28;20029;-68
2023/06/14 02:25:46;;;;;;;8.32;4.38;;;9.80;85.10;;;;;;5041441;28;20444;-69
2023/06/14 02:28:12;;;;;;;7.03;4.63;;;10.20;83.80;;;;;;5027729;28;20108;-68
2023/06/14 02:30:38;;;;;;;7.43;4.30;;;10.30;82.60;;;;;;5040099;28;20116;-68
2023/06/14 02:33:04;;;;;;;8.63;4.28;;;10.40;81.90;;;;;;5038174;28;20102;-68
2023/06/14 02:35:30;;;;;;;7.43;4.40;;;10.50;81.40;;;;;;5036279;28;20033;-68
2023/06/14 02:37:56;;;;;;;6.13;4.07;;;10.60;80.90;;;;;;5030293;28;20025;-68
2023/06/14 02:40:22;;;;;;;6.85;4.25;;;10.70;81.10;;;;;;5034483;28;20486;-68
2023/06/14 02:42:47;;;;;;;9.20;4.65;;;10.80;80.20;;;;;;5035104;28;20021;-69
2023/06/14 02:45:13;;;;;;;7.22;4.47;;;10.80;80.20;;;;;;5033691;28;20034;-68
2023/06/14 02:47:38;;;;;;;7.25;4.10;;;10.80;80.20;;;;;;5037149;28;20043;-68
2023/06/14 02:50:05;;;;;;;9.07;3.95;;;10.80;80.10;;;;;;5038702;28;20052;-67
2023/06/14 02:52:33;;;;;;;7.25;4.20;;;10.80;80.00;;;;;;5026512;28;20057;-68
2023/06/14 02:54:58;;;;;;;6.97;4.53;;;10.80;80.10;;;;;;5036482;28;20035;-68
2023/06/14 02:57:24;;;;;;;7.22;4.35;;;10.70;80.10;;;;;;5038544;28;20489;-68
2023/06/14 02:59:50;;;;;;;8.43;4.70;;;10.70;80.40;;;;;;5027260;28;20041;-68
2023/06/14 03:02:15;;;;;;;6.70;4.25;;;10.70;80.70;;;;;;5025246;28;20052;-68
2023/06/14 03:04:44;;;;;;;6.28;4.03;;;10.70;80.20;;;;;;5033281;28;20374;-68
2023/06/14 03:07:10;;;;;;;7.20;4.15;;;10.80;79.90;;;;;;5034531;28;20029;-69
2023/06/14 03:09:37;;;;;;;9.32;3.97;;;10.80;80.60;;;;;;5035730;28;20364;-68
2023/06/14 03:12:03;;;;;;;7.57;4.25;;;10.70;80.10;;;;;;5031967;28;20053;-69
2023/06/14 03:14:30;;;;;;;6.88;4.88;;;10.70;80.60;;;;;;5024598;28;20033;-69
2023/06/14 03:16:56;;;;;;;8.07;4.25;;;10.70;80.10;;;;;;5035293;28;20327;-68
2023/06/14 03:19:23;;;;;;;8.93;4.28;;;10.70;80.30;;;;;;5039468;28;20116;-68
2023/06/14 03:21:49;;;;;;;5.53;3.70;;;10.60;81.30;;;;;;5035531;28;20025;-69
2023/06/14 03:24:16;;;;;;;9.18;4.25;;;10.50;81.80;;;;;;5045065;28;20033;-68
2023/06/14 03:26:42;;;;;;;7.78;4.05;;;10.50;81.90;;;;;;5044450;28;20032;-67
2023/06/14 03:29:07;;;;;;;6.35;4.25;;;10.40;82.10;;;;;;5047451;28;20021;-69
2023/06/14 03:31:34;;;;;;;8.23;4.47;;;10.30;82.10;;;;;;5027290;28;20411;-68
2023/06/14 03:34:01;;;;;;;5.88;3.88;;;10.40;82.30;;;;;;5037901;28;20032;-68
2023/06/14 03:36:27;;;;;;;6.88;4.28;;;10.40;82.60;;;;;;5045505;28;20037;-68
2023/06/14 03:38:54;;;;;;;8.45;4.03;;;10.50;83.00;;;;;;5035429;28;20191;-69
2023/06/14 03:41:20;;;;;;;6.78;3.80;;;10.50;83.10;;;;;;5038205;28;20366;-69
2023/06/14 03:43:46;;;;;;;8.80;4.45;;;10.40;83.50;;;;;;5035385;28;20037;-68
2023/06/14 03:46:11;;;;;;;6.55;3.88;;;10.40;83.00;;;;;;5024580;28;20038;-68
2023/06/14 03:48:37;;;;;;;6.53;3.90;;;10.50;83.00;;;;;;5034101;28;20327;-68
2023/06/14 03:51:02;;;;;;;7.40;3.97;;;10.50;83.60;;;;;;5034832;28;20100;-68
2023/06/14 03:53:29;;;;;;;7.97;4.10;;;10.40;83.90;;;;;;5030435;28;20032;-68
2023/06/14 03:55:55;;;;;;;9.07;4.25;;;10.40;84.00;;;;;;5031053;28;20022;-68
2023/06/14 03:58:20;;;;;;;6.57;4.07;;;10.40;83.40;;;;;;5033840;28;20083;-68
2023/06/14 04:00:47;;;;;;;7.28;4.03;;;10.50;83.00;;;;;;5039350;28;20021;-69
2023/06/14 04:03:15;;;;;;;6.90;4.28;;;10.50;83.70;;;;;;5033556;28;20022;-68
2023/06/14 04:05:42;;;;;;;8.07;4.15;;;10.40;85.70;;;;;;5048574;28;20025;-69
2023/06/14 04:08:14;;;;;;;8.05;4.35;;;10.30;86.40;;;;;;5036676;28;20422;-69
2023/06/14 04:10:40;;;;;;;12.38;4.30;;;10.20;86.20;;;;;;5033435;28;20075;-68
2023/06/14 04:13:07;;;;;;;8.80;4.25;;;10.10;86.60;;;;;;5029144;28;20017;-68
2023/06/14 04:15:33;;;;;;;8.35;4.25;;;10.10;87.00;;;;;;5034384;28;20422;-68
2023/06/14 04:17:59;;;;;;;8.43;5.35;;;10.10;87.00;;;;;;5036603;28;20036;-68
2023/06/14 04:20:24;;;;;;;10.82;4.05;;;10.20;86.60;;;;;;5031805;28;20411;-69
2023/06/14 04:22:51;;;;;;;7.57;4.47;;;10.20;86.60;;;;;;5032282;28;20028;-68
2023/06/14 04:25:18;;;;;;;7.03;4.30;;;10.20;86.80;;;;;;5034721;28;20099;-68
2023/06/14 04:27:47;;;;;;;7.80;4.20;;;10.10;87.40;;;;;;5036725;28;20026;-69
2023/06/14 04:30:13;;;;;;;9.35;4.63;;;10.10;88.00;;;;;;5036982;28;20072;-69
2023/06/14 04:32:39;;;;;;;6.43;4.20;;;10.00;88.90;;;;;;5038100;28;20024;-68
2023/06/14 04:35:11;;;;;;;6.07;3.72;;;10.00;89.60;;;;;;5036528;28;20041;-68
2023/06/14 04:37:41;;;;;;;6.78;4.43;;;10.10;89.20;;;;;;5035665;28;20075;-67
2023/06/14 04:40:10;;;;;;;5.97;4.18;;;10.10;89.30;;;;;;5032843;28;20099;-67
2023/06/14 04:42:36;;;;;;;8.38;4.47;;;10.10;89.20;;;;;;5035598;28;20410;-67
2023/06/14 04:45:02;;;;;;;6.75;4.03;;;10.20;89.20;;;;;;5034379;28;20056;-67
2023/06/14 04:47:29;;;;;;;11.75;5.07;;;10.20;89.40;;;;;;5035608;28;20025;-67
2023/06/14 04:49:56;;;;;;;11.50;4.60;;;10.30;90.00;;;;;;5038508;28;20161;-69
2023/06/14 04:52:22;;;;;;;10.23;5.03;;;10.40;89.80;;;;;;5034704;28;20056;-69
2023/06/14 04:54:48;;;;;;;10.73;5.30;;;10.50;89.40;;;;;;5020102;28;20369;-68
2023/06/14 04:57:16;;;;;;;13.00;4.80;;;10.60;89.80;;;;;;5034068;28;20026;-69
2023/06/14 04:59:43;;;;;;;8.95;4.60;;;10.60;89.70;;;;;;5033618;28;20367;-68
2023/06/14 05:02:10;;;;;;;7.88;4.53;;;10.60;89.70;;;;;;5032671;28;20029;-68
2023/06/14 05:04:39;;;;;;;10.02;4.85;;;10.70;89.90;;;;;;5029275;28;20041;-68
2023/06/14 05:07:08;;;;;;;8.45;4.75;;;10.70;90.10;;;;;;5026018;28;20407;-67
2023/06/14 05:09:37;;;;;;;9.23;4.72;;;10.80;89.90;;;;;;5027096;28;20368;-68
2023/06/14 05:12:03;;;;;;;10.40;4.50;;;10.90;89.40;;;;;;5022918;28;20322;-69
2023/06/14 05:14:29;;;;;;;10.85;4.07;;;11.00;89.20;;;;;;5027164;28;20034;-68
2023/06/14 05:16:57;;;;;;;10.85;5.00;;;11.10;89.20;;;;;;5035466;28;20033;-69
2023/06/14 05:19:23;;;;;;;9.20;4.90;;;11.30;89.30;;;;;;5020165;28;20037;-68
2023/06/14 05:21:48;;;;;;;9.10;4.72;;;11.40;89.60;;;;;;5035231;28;20047;-68
2023/06/14 05:24:14;;;;;;;8.18;4.43;;;11.60;89.00;;;;;;5034650;28;20056;-69
2023/06/14 05:26:40;;;;;;;7.35;4.55;;;11.80;88.70;;;;;;5035140;28;20029;-69
2023/06/14 05:29:06;;;;;;;7.90;4.45;;;12.00;88.80;;;;;;5034297;28;20408;-68
2023/06/14 05:31:31;;;;;;;8.48;4.38;;;12.20;88.30;;;;;;5028109;28;20052;-69
2023/06/14 05:33:57;;;;;;;7.88;4.45;;;12.30;88.00;;;;;;5034198;28;20061;-69
2023/06/14 05:36:23;;;;;;;7.25;4.10;;;12.50;87.20;;;;;;5028984;28;20056;-68
2023/06/14 05:38:48;;;;;;;8.18;4.13;;;12.80;86.00;;;;;;5042303;28;20025;-69
2023/06/14 05:41:14;;;;;;;10.05;4.90;;;13.00;84.80;;;;;;5034717;28;20406;-69
2023/06/14 05:43:40;;;;;;;9.25;4.38;;;13.10;83.60;;;;;;5030125;28;20041;-70
2023/06/14 05:46:05;;;;;;;6.68;4.10;;;13.30;81.90;;;;;;5036309;28;20029;-69
2023/06/14 05:48:34;;;;;;;7.95;4.30;;;13.40;79.80;;;;;;5034346;28;20025;-69
2023/06/14 05:51:00;;;;;;;12.95;5.28;;;13.40;81.00;;;;;;5034689;28;20048;-69
2023/06/14 05:53:25;;;;;;;7.88;4.63;;;13.50;80.10;;;;;;5034142;28;20021;-69
2023/06/14 05:55:54;;;;;;;8.27;4.63;;;13.60;79.60;;;;;;5034930;28;20038;-69
2023/06/14 05:58:23;;;;;;;9.18;4.72;;;13.80;78.30;;;;;;5035604;28;20082;-69
2023/06/14 06:00:49;;;;;;;9.07;4.85;;;14.00;78.50;;;;;;5031599;28;20054;-69
2023/06/14 06:03:14;;;;;;;8.55;5.45;;;14.20;78.50;;;;;;5034453;28;20061;-69
2023/06/14 06:05:40;;;;;;;7.85;5.00;;;14.40;78.80;;;;;;5034783;28;20021;-69
2023/06/14 06:08:05;;;;;;;8.55;5.22;;;14.40;80.10;;;;;;5034128;28;20022;-69
2023/06/14 06:10:31;;;;;;;10.60;5.55;;;14.40;79.70;;;;;;5033523;28;20053;-69
2023/06/14 06:12:57;;;;;;;8.85;5.15;;;14.50;79.90;;;;;;5035123;28;20315;-69
2023/06/14 06:15:22;;;;;;;9.02;5.07;;;14.40;80.10;;;;;;5033621;28;20100;-69
2023/06/14 06:17:48;;;;;;;7.05;4.63;;;14.40;80.40;;;;;;5038504;28;20029;-69
2023/06/14 06:20:13;;;;;;;9.38;5.30;;;14.50;80.00;;;;;;5038209;28;20423;-69
2023/06/14 06:22:39;;;;;;;9.45;5.38;;;14.60;79.80;;;;;;5037913;28;20064;-69
2023/06/14 06:25:06;;;;;;;8.93;5.38;;;14.70;78.80;;;;;;5045096;28;20041;-69
2023/06/14 06:27:32;;;;;;;9.52;5.00;;;14.70;78.50;;;;;;5037978;28;20025;-69
2023/06/14 06:29:58;;;;;;;11.20;5.30;;;14.80;78.60;;;;;;5035721;28;20029;-69
2023/06/14 06:32:23;;;;;;;8.13;5.25;;;14.90;79.00;;;;;;5019406;28;20083;-69
2023/06/14 06:34:50;;;;;;;7.65;4.97;;;15.00;79.10;;;;;;5018946;28;20100;-70
2023/06/14 06:37:15;;;;;;;9.60;5.60;;;15.20;78.90;;;;;;5019424;28;20461;-69
2023/06/14 06:39:41;;;;;;;9.60;5.07;;;15.30;78.70;;;;;;5033579;28;20025;-69
2023/06/14 06:42:06;;;;;;;10.27;5.38;;;15.50;78.30;;;;;;5026232;28;20080;-69
2023/06/14 06:44:32;;;;;;;9.48;5.20;;;15.60;77.60;;;;;;5037102;28;20329;-69
2023/06/14 06:46:59;;;;;;;8.82;5.00;;;15.70;77.70;;;;;;5036832;28;20025;-69
2023/06/14 06:49:25;;;;;;;9.82;5.30;;;15.80;77.30;;;;;;5036787;28;20025;-69
2023/06/14 06:52:05;;;;;;;7.78;5.45;;;16.00;76.40;;;;;;5037694;28;20072;-69
2023/06/14 06:54:31;;;;;;;8.63;5.30;;;16.20;76.40;;;;;;5037188;28;20033;-69
2023/06/14 06:56:56;;;;;;;10.07;5.25;;;16.30;75.90;;;;;;5038644;28;20033;-69
2023/06/14 06:59:22;;;;;;;11.73;5.18;;;16.50;75.10;;;;;;5037535;28;20037;-69
2023/06/14 07:01:48;;;;;;;9.82;5.30;;;16.60;74.40;;;;;;5035913;28;20030;-69
2023/06/14 07:04:13;;;;;;;9.32;4.93;;;16.60;73.90;;;;;;5032035;28;20116;-69
2023/06/14 07:06:42;;;;;;;10.23;5.05;;;16.60;74.20;;;;;;5018769;28;20310;-69
2023/06/14 07:09:12;;;;;;;8.43;4.90;;;16.70;74.80;;;;;;5033462;28;20292;-69
2023/06/14 07:11:39;;;;;;;8.27;4.85;;;16.90;74.20;;;;;;5038353;28;20034;-69
2023/06/14 07:14:04;;;;;;;8.15;4.40;;;17.00;73.10;;;;;;5037623;28;20159;-69
2023/06/14 07:16:30;;;;;;;9.93;4.90;;;17.20;72.00;;;;;;5032505;28;20104;-70
2023/06/14 07:18:56;;;;;;;8.25;5.20;;;17.40;72.40;;;;;;5024936;28;20071;-69
2023/06/14 07:21:21;;;;;;;10.00;4.78;;;17.50;71.10;;;;;;5031349;28;20033;-69
2023/06/14 07:23:50;;;;;;;8.93;4.53;;;17.90;70.10;;;;;;5024313;28;20144;-69
2023/06/14 07:26:15;;;;;;;8.68;4.95;;;18.70;68.40;;;;;;5020838;28;20029;-68
2023/06/14 07:28:44;;;;;;;8.07;4.68;;;19.90;66.30;;;;;;5021066;28;20105;-68
2023/06/14 07:31:10;;;;;;;8.55;4.50;;;21.00;64.40;;;;;;5030934;28;20024;-67
2023/06/14 07:33:36;;;;;;;7.55;4.57;;;21.50;63.10;;;;;;5037059;28;20045;-66
2023/06/14 07:36:01;;;;;;;7.30;4.68;;;21.70;62.60;;;;;;5038099;28;20037;-66
2023/06/14 07:38:27;;;;;;;7.05;4.28;;;21.80;62.50;;;;;;5035951;28;20033;-66
2023/06/14 07:40:53;;;;;;;8.10;4.40;;;21.80;62.10;;;;;;5036862;28;20418;-66
2023/06/14 07:43:18;;;;;;;6.45;4.32;;;22.10;62.20;;;;;;5034750;28;20112;-68
2023/06/14 07:45:44;;;;;;;7.55;4.50;;;22.20;60.10;;;;;;5037690;28;20025;-68
2023/06/14 07:48:10;;;;;;;8.90;4.80;;;22.40;59.90;;;;;;5024886;28;20036;-68
2023/06/14 07:50:35;;;;;;;10.68;5.57;;;21.60;61.00;;;;;;5030201;28;20026;-68
2023/06/14 07:53:01;;;;;;;8.80;5.05;;;21.90;61.90;;;;;;5019338;28;20037;-68
2023/06/14 07:55:30;;;;;;;10.25;5.15;;;22.50;61.60;;;;;;5035778;28;20116;-69
2023/06/14 07:57:56;;;;;;;8.10;4.47;;;23.40;59.90;;;;;;5018252;28;20437;-69
2023/06/14 08:00:21;;;;;;;9.30;4.85;;;23.50;58.90;;;;;;5017746;28;20037;-68
2023/06/14 08:02:47;;;;;;;8.80;4.68;;;23.60;57.90;;;;;;5033949;28;20068;-69
2023/06/14 08:05:13;;;;;;;6.85;4.25;;;23.80;55.90;;;;;;5026435;28;20033;-69
2023/06/14 08:07:40;;;;;;;8.43;4.72;;;23.80;55.10;;;;;;5021662;28;20022;-69
2023/06/14 08:10:09;;;;;;;10.45;4.95;;;23.80;55.20;;;;;;5035685;28;20411;-68
2023/06/14 08:12:35;;;;;;;7.78;4.63;;;24.20;54.50;;;;;;5021583;28;20486;-69
2023/06/14 08:15:04;;;;;;;9.70;4.50;;;24.70;54.90;;;;;;5036893;28;20033;-69
2023/06/14 08:17:30;;;;;;;8.07;4.40;;;24.70;53.00;;;;;;5035992;28;20036;-69
2023/06/14 08:19:57;;;;;;;8.90;4.60;;;24.10;52.80;;;;;;5036134;28;20030;-68
2023/06/14 08:22:24;;;;;;;8.77;4.03;;;23.40;54.80;;;;;;5035125;28;20061;-75
2023/06/14 08:24:50;;;;;;;9.02;4.32;;;23.80;55.50;;;;;;5024636;28;20053;-72
2023/06/14 08:27:15;;;;;;;10.40;4.60;;;23.10;55.70;;;;;;5018914;28;20099;-70
2023/06/14 08:29:41;;;;;;;8.20;4.43;;;22.70;57.10;;;;;;5016019;28;20018;-68
2023/06/14 08:32:07;;;;;;;7.65;5.05;;;22.80;57.00;;;;;;5029129;28;20018;-69
2023/06/14 08:34:32;;;;;;;8.73;4.38;;;23.60;56.60;;;;;;5027673;28;20053;-69
2023/06/14 08:36:58;;;;;;;10.00;5.00;;;23.90;55.20;;;;;;5034815;28;20119;-69
2023/06/14 08:39:24;;;;;;;8.07;4.15;;;23.80;56.40;;;;;;5029110;28;20411;-68
2023/06/14 08:41:50;;;;;;;9.65;4.72;;;23.90;55.20;;;;;;5031788;28;20029;-68
2023/06/14 08:44:19;;;;;;;10.75;4.95;;;24.10;55.20;;;;;;5036525;28;20039;-68
2023/06/14 08:46:47;;;;;;;10.32;4.38;;;24.10;54.80;;;;;;5030294;28;20087;-68
2023/06/14 08:49:14;;;;;;;9.98;5.13;;;24.10;56.10;;;;;;5033900;28;20433;-68
2023/06/14 08:51:40;;;;;;;10.10;4.97;;;24.40;55.90;;;;;;5035113;28;20052;-68
2023/06/14 08:54:07;;;;;;;8.48;4.75;;;24.10;56.10;;;;;;5017653;28;20034;-68
2023/06/14 08:56:33;;;;;;;8.95;5.15;;;24.20;56.00;;;;;;5036289;28;20038;-68
2023/06/14 08:59:03;;;;;;;5.72;3.75;;;24.60;54.30;;;;;;5057356;28;20078;-68
2023/06/14 09:01:34;;;;;;;9.27;4.53;;;24.90;55.60;;;;;;5026579;28;20435;-69
2023/06/14 09:03:59;;;;;;;7.97;4.53;;;25.20;54.80;;;;;;5016711;28;20026;-69
2023/06/14 09:06:27;;;;;;;7.90;4.68;;;25.10;54.50;;;;;;5018579;28;20034;-68
2023/06/14 09:08:56;;;;;;;9.48;4.90;;;25.00;54.30;;;;;;5028092;28;20060;-68
2023/06/14 09:11:23;;;;;;;7.25;4.20;;;24.80;54.80;;;;;;5018306;28;20032;-69
2023/06/14 09:13:50;;;;;;;13.80;4.60;;;25.40;55.40;;;;;;5016192;28;20475;-68
2023/06/14 09:16:19;;;;;;;8.68;4.50;;;26.30;52.70;;;;;;5033521;28;20069;-68
2023/06/14 09:18:47;;;;;;;9.60;4.72;;;26.20;52.00;;;;;;5036246;28;20122;-68
2023/06/14 09:21:14;;;;;;;9.07;4.60;;;26.50;53.00;;;;;;5026407;28;20052;-68
2023/06/14 09:23:41;;;;;;;7.38;3.97;;;27.10;51.40;;;;;;5034955;28;20068;-69
2023/06/14 09:26:12;;;;;;;8.75;4.05;;;27.70;51.10;;;;;;5034868;28;20030;-68
2023/06/14 09:28:47;;;;;;;9.00;4.38;;;28.30;49.30;;;;;;5036107;28;20584;-68
2023/06/14 09:31:18;;;;;;;6.68;3.78;;;27.80;50.50;;;;;;5033413;28;20051;-68
2023/06/14 09:33:47;;;;;;;8.95;4.88;;;27.20;51.20;;;;;;5021440;28;20361;-68
2023/06/14 09:36:25;;;;;;;6.75;4.03;;;26.20;50.30;;;;;;5023670;28;20028;-68
2023/06/14 09:39:08;;;;;;;10.82;4.95;;;26.10;51.70;;;;;;5034707;28;20025;-68
2023/06/14 09:41:38;;;;;;;10.32;4.10;;;26.40;51.10;;;;;;5016284;28;20367;-68
2023/06/14 09:44:04;;;;;;;11.32;4.80;;;26.30;50.40;;;;;;5032942;28;20426;-68
2023/06/14 09:46:32;;;;;;;10.77;4.25;;;26.20;51.60;;;;;;5020383;28;20030;-68
2023/06/14 09:49:01;;;;;;;10.65;4.40;;;26.20;51.40;;;;;;5032280;28;20025;-68
2023/06/14 09:51:30;;;;;;;8.20;4.32;;;26.30;50.30;;;;;;5022618;28;20022;-68
2023/06/14 09:54:00;;;;;;;11.70;4.32;;;27.00;51.10;;;;;;5038493;28;20113;-68
2023/06/14 09:56:29;;;;;;;7.05;3.90;;;27.20;49.00;;;;;;5039132;28;20101;-68
2023/06/14 09:58:57;;;;;;;6.95;3.90;;;27.20;49.00;;;;;;5039959;28;20025;-68
2023/06/14 10:01:25;;;;;;;7.35;4.53;;;27.10;50.60;;;;;;5023901;28;20350;-68
2023/06/14 10:04:01;;;;;;;6.47;4.20;;;27.30;49.90;;;;;;5019836;28;20542;-68
2023/06/14 10:06:28;;;;;;;11.63;4.60;;;26.70;50.40;;;;;;5029048;28;20037;-68
2023/06/14 10:08:57;;;;;;;10.40;4.78;;;26.60;50.60;;;;;;5038030;28;20026;-67
2023/06/14 10:11:24;;;;;;;8.88;4.90;;;25.90;50.20;;;;;;5027921;28;20352;-68
2023/06/14 10:13:50;;;;;;;7.80;3.92;;;25.50;52.40;;;;;;5039254;28;20026;-68
2023/06/14 10:16:34;;;;;;;7.07;4.00;;;25.90;51.30;;;;;;5022597;28;20429;-68
2023/06/14 10:19:11;;;;;;;8.43;3.88;;;26.50;51.10;;;;;;5019323;28;20041;-68
2023/06/14 10:21:36;;;;;;;9.05;4.38;;;26.90;50.40;;;;;;5037029;28;20037;-68
2023/06/14 10:24:06;;;;;;;7.00;4.03;;;27.10;50.50;;;;;;5031202;28;20080;-68
2023/06/14 10:26:32;;;;;;;8.57;4.30;;;27.20;48.90;;;;;;5019830;28;20030;-68
2023/06/14 10:29:08;;;;;;;8.93;4.13;;;27.00;48.60;;;;;;5019351;28;20080;-68
2023/06/14 10:31:45;;;;;;;8.35;4.20;;;26.70;49.90;;;;;;5019183;28;20391;-69
2023/06/14 10:34:12;;;;;;;9.38;4.60;;;26.50;49.60;;;;;;5030047;28;20053;-69
2023/06/14 10:36:41;;;;;;;7.47;4.25;;;25.80;49.90;;;;;;5021271;28;20096;-69
2023/06/14 10:39:17;;;;;;;7.13;4.10;;;26.00;50.40;;;;;;5036763;28;20128;-68
2023/06/14 10:41:53;;;;;;;11.43;4.05;;;27.00;49.20;;;;;;5030052;28;20369;-68
2023/06/14 10:44:21;;;;;;;8.93;4.15;;;27.60;46.90;;;;;;5027010;28;20029;-68
2023/06/14 10:46:52;;;;;;;7.20;4.20;;;27.10;48.00;;;;;;5038689;28;20083;-68
2023/06/14 10:49:19;;;;;;;7.43;4.30;;;26.20;49.90;;;;;;5035719;28;20072;-69
2023/06/14 10:51:49;;;;;;;7.00;4.18;;;25.80;49.30;;;;;;5018952;28;20068;-68
2023/06/14 10:54:16;;;;;;;9.18;4.15;;;26.40;50.30;;;;;;5035260;28;20022;-68
2023/06/14 10:56:49;;;;;;;9.93;3.53;;;26.90;49.00;;;;;;5034878;28;20064;-68
2023/06/14 10:59:15;;;;;;;6.97;4.03;;;26.90;49.00;;;;;;5019696;28;20030;-68
2023/06/14 11:01:58;;;;;;;6.13;4.05;;;27.50;47.40;;;;;;5017941;28;20331;-68
2023/06/14 11:04:40;;;;;;;7.30;4.43;;;27.30;47.80;;;;;;5017556;28;20105;-68
2023/06/14 11:07:48;;;;;;;8.55;4.30;;;26.50;48.60;;;;;;5025441;28;20409;-69
2023/06/14 11:10:36;;;;;;;8.85;4.03;;;25.80;49.80;;;;;;5025206;28;20040;-69
2023/06/14 11:13:04;;;;;;;10.38;4.38;;;25.70;50.30;;;;;;5038561;28;20104;-68
2023/06/14 11:15:31;;;;;;;6.53;4.53;;;25.80;50.30;;;;;;5037404;28;20040;-68
2023/06/14 11:17:57;;;;;;;6.20;3.58;;;25.90;48.60;;;;;;5038438;28;20061;-68
2023/06/14 11:20:27;;;;;;;7.63;3.85;;;26.30;48.80;;;;;;5026764;28;20097;-68
2023/06/14 11:22:53;;;;;;;7.72;4.22;;;27.30;47.90;;;;;;5037135;28;20103;-69
2023/06/14 11:25:19;;;;;;;9.27;4.30;;;27.50;46.90;;;;;;5029575;28;20017;-68
2023/06/14 11:27:50;;;;;;;6.97;4.22;;;27.20;47.10;;;;;;5038193;28;20586;-69
2023/06/14 11:30:16;;;;;;;5.85;3.80;;;26.80;48.40;;;;;;5029138;28;20032;-68
2023/06/14 11:32:42;;;;;;;9.45;4.03;;;27.20;47.90;;;;;;5038084;28;20048;-68
2023/06/14 11:35:09;;;;;;;8.60;4.25;;;26.70;47.80;;;;;;5022968;28;20042;-68
2023/06/14 11:37:37;;;;;;;7.57;4.15;;;26.50;48.90;;;;;;5021139;28;20334;-67
2023/06/14 11:40:12;;;;;;;6.45;4.20;;;26.40;49.40;;;;;;5033834;28;20433;-67
2023/06/14 11:42:39;;;;;;;7.63;4.10;;;26.10;49.50;;;;;;5037457;28;20033;-67
2023/06/14 11:45:11;;;;;;;8.23;4.63;;;25.90;48.90;;;;;;5023119;28;20092;-67
2023/06/14 11:47:39;;;;;;;7.78;4.50;;;25.90;49.60;;;;;;5018025;28;20029;-67
2023/06/14 11:50:06;;;;;;;8.35;3.88;;;26.20;48.10;;;;;;5026748;28;20296;-67
2023/06/14 11:52:32;;;;;;;6.70;3.70;;;26.90;49.50;;;;;;5036455;28;20021;-69
2023/06/14 11:54:58;;;;;;;5.75;4.03;;;26.90;47.00;;;;;;5032409;28;20048;-68
2023/06/14 11:57:24;;;;;;;7.63;3.90;;;27.10;48.30;;;;;;5023828;28;20029;-69
2023/06/14 11:59:50;;;;;;;7.70;4.20;;;26.90;48.20;;;;;;5016717;28;20026;-68
2023/06/14 12:02:16;;;;;;;9.15;4.10;;;26.40;48.20;;;;;;5025258;28;20295;-68
2023/06/14 12:04:47;;;;;;;8.68;4.03;;;26.20;48.90;;;;;;5024505;28;20030;-68
2023/06/14 12:07:17;;;;;;;7.88;3.70;;;26.50;48.10;;;;;;5016503;28;20419;-68
2023/06/14 12:09:54;;;;;;;7.07;4.22;;;27.10;47.80;;;;;;5026572;28;20400;-68
2023/06/14 12:12:26;;;;;;;7.05;3.97;;;26.90;47.70;;;;;;5022233;28;20064;-69
2023/06/14 12:14:56;;;;;;;5.93;3.80;;;27.10;47.90;;;;;;5029168;28;20362;-68
2023/06/14 12:17:22;;;;;;;8.45;4.15;;;27.10;46.50;;;;;;5017472;28;20025;-68
2023/06/14 12:19:49;;;;;;;6.45;3.92;;;27.20;46.60;;;;;;5017324;28;20136;-68
2023/06/14 12:22:16;;;;;;;7.70;3.90;;;27.10;47.90;;;;;;5032376;28;20029;-68
2023/06/14 12:24:45;;;;;;;8.07;3.65;;;27.10;47.40;;;;;;5037105;28;20067;-68
2023/06/14 12:27:15;;;;;;;6.90;4.00;;;26.90;47.60;;;;;;5035581;28;20060;-68
2023/06/14 12:29:43;;;;;;;8.30;4.22;;;27.20;47.20;;;;;;5029034;28;20108;-69
2023/06/14 12:32:09;;;;;;;6.95;4.03;;;27.00;47.80;;;;;;5019398;28;20025;-68
2023/06/14 12:34:35;;;;;;;7.72;3.90;;;27.20;47.80;;;;;;5021660;28;20050;-68
2023/06/14 12:37:04;;;;;;;10.23;4.53;;;27.40;48.50;;;;;;5019332;28;20037;-69
2023/06/14 12:39:31;;;;;;;5.88;4.10;;;27.60;46.50;;;;;;5017027;28;20081;-68
2023/06/14 12:41:57;;;;;;;5.82;4.10;;;27.90;46.30;;;;;;5026103;28;20022;-68
2023/06/14 12:44:23;;;;;;;8.25;4.18;;;28.50;45.50;;;;;;5017757;28;20030;-69
2023/06/14 12:46:51;;;;;;;7.53;4.10;;;28.50;45.50;;;;;;5032116;28;20021;-69